createdAt,value
2016-12-08T00:00:02.385Z,0
2016-12-08T00:00:55.286Z,0
2016-12-08T00:02:20.203Z,0
2016-12-08T00:03:14.367Z,0
2016-12-08T00:04:07.513Z,0
2016-12-08T00:05:01.040Z,0
2016-12-08T00:05:53.806Z,0
2016-12-08T00:49:51.896Z,0
2016-12-08T00:51:14.005Z,0
2016-12-08T03:50:29.369Z,0
2016-12-08T03:52:15.473Z,0
2016-12-08T04:47:46.680Z,0
2016-12-08T04:49:11.750Z,0
2016-12-08T04:50:36.933Z,0
2016-12-08T04:51:30.416Z,0
2016-12-08T04:52:24.355Z,0
2016-12-08T04:53:17.331Z,0
2016-12-08T04:54:11.193Z,0
2016-12-08T04:55:04.747Z,0
2016-12-08T04:55:58.197Z,0
2016-12-08T04:56:51.377Z,0
2016-12-08T04:57:44.975Z,0
2016-12-08T04:58:38.351Z,0
2016-12-08T04:59:31.855Z,0
2016-12-08T05:00:25.139Z,0
2016-12-08T05:01:18.788Z,0
2016-12-08T05:02:12.363Z,0
2016-12-08T05:03:05.659Z,0
2016-12-08T05:03:59.125Z,0
2016-12-08T05:04:52.775Z,0
2016-12-08T05:06:38.602Z,0
2016-12-08T05:07:32.743Z,0
2016-12-08T05:08:26.002Z,0
2016-12-08T05:09:19.153Z,0
2016-12-08T05:10:12.914Z,0
2016-12-08T05:11:06.707Z,0
2016-12-08T05:11:59.988Z,0
2016-12-08T05:12:53.717Z,0
2016-12-08T05:13:47.247Z,0
2016-12-08T05:14:40.190Z,0
2016-12-08T05:15:34.287Z,0
2016-12-08T05:16:27.356Z,0
2016-12-08T05:50:09.685Z,0
2016-12-08T05:51:54.705Z,0
2016-12-08T05:52:48.853Z,0
2016-12-08T05:53:41.850Z,0
2016-12-08T05:54:35.205Z,0
2016-12-08T05:55:48.806Z,0
2016-12-08T05:56:42.427Z,0
2016-12-08T05:57:35.018Z,0
2016-12-08T05:58:28.426Z,0
2016-12-08T05:59:21.675Z,0
2016-12-08T06:00:15.209Z,0
2016-12-08T06:01:09.366Z,0
2016-12-08T06:02:02.533Z,0
2016-12-08T06:02:56.096Z,0
2016-12-08T06:03:49.066Z,0
2016-12-08T06:04:42.867Z,0
2016-12-08T06:05:35.542Z,0
2016-12-08T06:06:26.505Z,0
2016-12-08T06:07:20.409Z,0
2016-12-08T06:08:11.702Z,0
2016-12-08T06:49:07.822Z,12
2016-12-08T06:51:48.091Z,16
2016-12-08T06:52:40.967Z,20
2016-12-08T06:53:34.754Z,20
2016-12-08T06:54:27.762Z,24
2016-12-08T06:56:13.122Z,32
2016-12-08T06:57:37.619Z,36
2016-12-08T06:59:52.128Z,48
2016-12-08T07:00:46.149Z,56
2016-12-08T07:01:39.781Z,60
2016-12-08T07:49:29.859Z,688
2016-12-08T07:51:16.673Z,708
2016-12-08T07:53:02.705Z,732
2016-12-08T08:51:42.877Z,2864
2016-12-08T08:52:36.300Z,2956
2016-12-08T08:53:29.814Z,3232
2016-12-08T08:54:23.363Z,3248
2016-12-08T08:55:16.748Z,2904
2016-12-08T08:56:10.298Z,3264
2016-12-08T08:57:03.978Z,3532
2016-12-08T08:57:57.249Z,3488
2016-12-08T08:58:50.764Z,3368
2016-12-08T09:00:15.797Z,3160
2016-12-08T09:01:09.220Z,3068
2016-12-08T09:03:27.738Z,4252
2016-12-08T09:04:21.231Z,4436
2016-12-08T09:05:14.367Z,4384
2016-12-08T09:06:08.351Z,4304
2016-12-08T09:07:01.744Z,4140
2016-12-08T09:07:55.546Z,4272
2016-12-08T09:08:49.021Z,4304
2016-12-08T09:09:42.570Z,4336
2016-12-08T09:10:35.869Z,4380
2016-12-08T09:11:29.096Z,4500
2016-12-08T09:13:16.392Z,4064
2016-12-08T09:14:10.073Z,3988
2016-12-08T09:16:28.181Z,3608
2016-12-08T09:17:20.637Z,3492
2016-12-08T09:18:13.692Z,3292
2016-12-08T09:19:07.686Z,3100
2016-12-08T09:19:58.614Z,3016
2016-12-08T09:51:46.556Z,5060
2016-12-08T09:52:59.955Z,4584
2016-12-08T09:53:53.414Z,4748
2016-12-08T09:55:40.373Z,5776
2016-12-08T09:56:33.481Z,5492
2016-12-08T09:57:26.102Z,5596
2016-12-08T09:59:13.395Z,5060
2016-12-08T10:00:06.673Z,5136
2016-12-08T10:01:00.299Z,4996
2016-12-08T10:01:53.639Z,5420
2016-12-08T10:02:47.513Z,5556
2016-12-08T10:03:40.967Z,5516
2016-12-08T10:05:05.941Z,4976
2016-12-08T10:05:59.446Z,5376
2016-12-08T10:06:53.109Z,5812
2016-12-08T10:07:47.448Z,6348
2016-12-08T10:08:40.634Z,5772
2016-12-08T10:09:53.826Z,5396
2016-12-08T10:10:47.799Z,5856
2016-12-08T10:11:41.182Z,7220
2016-12-08T10:12:34.869Z,8048
2016-12-08T10:13:27.999Z,7608
2016-12-08T10:14:21.512Z,7396
2016-12-08T10:15:14.993Z,6080
2016-12-08T10:16:08.688Z,6096
2016-12-08T10:17:01.996Z,7076
2016-12-08T10:18:15.430Z,8484
2016-12-08T10:19:08.893Z,8488
2016-12-08T10:20:02.625Z,7684
2016-12-08T10:51:37.504Z,10184
2016-12-08T10:52:30.670Z,10508
2016-12-08T10:53:24.060Z,9916
2016-12-08T10:54:17.684Z,10044
2016-12-08T10:55:11.412Z,9468
2016-12-08T10:56:04.699Z,9840
2016-12-08T10:56:58.211Z,9700
2016-12-08T10:58:45.188Z,8680
2016-12-08T10:59:38.600Z,8492
2016-12-08T11:01:03.686Z,9248
2016-12-08T11:01:56.756Z,8792
2016-12-08T11:02:49.767Z,8476
2016-12-08T11:03:43.987Z,7776
2016-12-08T11:06:18.488Z,8720
2016-12-08T11:07:11.963Z,9260
2016-12-08T11:08:05.177Z,9716
2016-12-08T11:52:15.841Z,11188
2016-12-08T11:53:09.565Z,10960
2016-12-08T11:54:02.844Z,11588
2016-12-08T11:55:27.481Z,11848
2016-12-08T11:56:21.020Z,12432
2016-12-08T11:57:14.264Z,12656
2016-12-08T11:58:08.072Z,13808
2016-12-08T11:59:01.221Z,14008
2016-12-08T12:02:21.132Z,14720
2016-12-08T12:03:14.834Z,13516
2016-12-08T12:05:00.355Z,14100
2016-12-08T12:06:25.835Z,14264
2016-12-08T12:08:44.114Z,11768
2016-12-08T12:51:11.361Z,4336
2016-12-08T12:52:04.972Z,3880
2016-12-08T12:52:58.777Z,3592
2016-12-08T12:54:55.432Z,4412
2016-12-08T14:54:35.416Z,812
2016-12-08T14:56:26.157Z,756
2016-12-08T17:51:03.252Z,0
2016-12-08T19:49:36.349Z,0
2016-12-08T19:50:29.804Z,0
2016-12-08T20:50:15.743Z,0
2016-12-08T20:51:09.444Z,0
2016-12-08T20:53:31.295Z,0
2016-12-08T20:55:14.265Z,0
2016-12-08T21:52:22.120Z,0
2016-12-08T22:51:17.336Z,0
2016-12-08T22:52:41.570Z,0
2016-12-08T23:51:08.416Z,0
